Time;durP1;ratioP1;P1;durP2;ratioP2;P2;SDS_P1;SDS_P2;PMS_P1;PMS_P2;Temp;Humidity;BMP_temperature;BMP_pressure;BME280_temperature;BME280_humidity;BME280_pressure;Samples;Min_cycle;Max_cycle;Signal;HPM_P1;HPM_P2
2022/07/15 00:02:11;;;;;;;0.80;0.80;;;;;20.20;98653.00;;;;5114106;28;20190;-70
2022/07/15 00:04:40;;;;;;;0.73;0.73;;;;;20.10;98656.00;;;;5114335;28;20281;-68
2022/07/15 00:07:07;;;;;;;0.40;0.40;;;;;20.00;98655.00;;;;5114226;28;20626;-68
2022/07/15 00:12:19;;;;;;;0.60;0.60;;;;;19.80;98657.00;;;;5114629;28;20182;-68
2022/07/15 00:14:47;;;;;;;0.40;0.40;;;;;19.70;98654.00;;;;5117583;28;20194;-68
2022/07/15 00:17:14;;;;;;;1.33;1.03;;;;;19.60;98663.00;;;;5117495;28;20221;-68
2022/07/15 00:19:41;;;;;;;0.60;0.60;;;;;19.70;98655.00;;;;5117462;28;20198;-68
2022/07/15 00:22:08;;;;;;;0.70;0.70;;;;;19.60;98655.00;;;;5099421;28;20214;-68
2022/07/15 00:24:35;;;;;;;0.70;0.70;;;;;19.40;98655.00;;;;5117315;28;20653;-68
2022/07/15 00:27:02;;;;;;;0.43;0.43;;;;;19.30;98656.00;;;;5117329;28;20217;-68
2022/07/15 00:29:29;;;;;;;1.40;1.40;;;;;19.30;98656.00;;;;5117448;28;20186;-68
2022/07/15 00:31:59;;;;;;;0.60;0.60;;;;;19.20;98655.00;;;;5117308;28;20281;-68
2022/07/15 00:34:26;;;;;;;4.07;1.33;;;;;19.20;98653.00;;;;5117349;28;20289;-68
2022/07/15 00:36:53;;;;;;;0.73;0.73;;;;;19.20;98658.00;;;;5117240;28;20186;-68
2022/07/15 00:39:20;;;;;;;0.97;0.77;;;;;19.10;98656.00;;;;5117124;28;20222;-65
2022/07/15 00:41:49;;;;;;;0.60;0.60;;;;;19.00;98655.00;;;;5117237;28;20193;-68
2022/07/15 00:44:18;;;;;;;0.90;0.90;;;;;18.80;98651.00;;;;5098936;28;20254;-68
2022/07/15 00:46:48;;;;;;;0.67;0.67;;;;;18.70;98648.00;;;;5117095;28;20202;-68
2022/07/15 00:49:16;;;;;;;0.63;0.63;;;;;18.70;98646.00;;;;5117031;28;20235;-68
2022/07/15 00:51:44;;;;;;;0.90;0.90;;;;;18.70;98654.00;;;;5117038;28;20194;-68
2022/07/15 00:54:12;;;;;;;0.50;0.50;;;;;18.70;98653.00;;;;5116897;28;20249;-68
2022/07/15 00:56:51;;;;;;;0.50;0.50;;;;;18.80;98649.00;;;;5116889;28;20209;-68
2022/07/15 00:59:19;;;;;;;0.77;0.77;;;;;18.70;98647.00;;;;5099083;28;20194;-68
2022/07/15 01:01:47;;;;;;;0.90;0.90;;;;;18.60;98637.00;;;;5116640;28;20209;-67
2022/07/15 01:04:16;;;;;;;0.90;0.90;;;;;18.50;98643.00;;;;5116629;28;20225;-68
2022/07/15 01:06:44;;;;;;;0.60;0.60;;;;;18.40;98640.00;;;;5098681;28;20424;-65
2022/07/15 01:09:11;;;;;;;0.60;0.60;;;;;18.30;98641.00;;;;5116642;28;20528;-66
2022/07/15 01:11:38;;;;;;;0.97;0.97;;;;;18.50;98646.00;;;;5116592;28;20209;-66
2022/07/15 01:14:05;;;;;;;0.40;0.40;;;;;18.40;98650.00;;;;5116611;28;20259;-68
2022/07/15 01:16:32;;;;;;;0.93;0.93;;;;;18.30;98643.00;;;;5116579;28;20202;-66
2022/07/15 01:19:02;;;;;;;1.40;1.30;;;;;18.20;98643.00;;;;5098604;28;20194;-66
2022/07/15 01:21:29;;;;;;;1.00;1.00;;;;;18.30;98646.00;;;;5116506;28;20190;-66
2022/07/15 01:23:59;;;;;;;0.50;0.50;;;;;18.10;98655.00;;;;5114947;28;20218;-66
2022/07/15 01:26:28;;;;;;;2.93;1.90;;;;;18.10;98646.00;;;;5116471;28;20322;-66
2022/07/15 01:28:55;;;;;;;0.60;0.60;;;;;18.00;98651.00;;;;5116347;28;20305;-66
2022/07/15 01:31:22;;;;;;;0.50;0.50;;;;;18.00;98657.00;;;;5116367;28;20190;-67
2022/07/15 01:33:53;;;;;;;7.03;0.80;;;;;17.90;98649.00;;;;5116169;28;20226;-66
2022/07/15 01:36:21;;;;;;;0.67;0.67;;;;;17.70;98661.00;;;;5116415;28;20178;-68
2022/07/15 01:38:50;;;;;;;0.50;0.50;;;;;17.70;98658.00;;;;5116295;28;20225;-66
2022/07/15 01:41:17;;;;;;;0.70;0.70;;;;;17.50;98652.00;;;;5116249;28;20202;-68
2022/07/15 01:43:44;;;;;;;0.77;0.77;;;;;17.40;98651.00;;;;5116135;28;20229;-68
2022/07/15 01:46:11;;;;;;;0.50;0.50;;;;;17.50;98652.00;;;;5116253;28;20621;-68
2022/07/15 01:51:22;;;;;;;0.93;0.93;;;;;17.20;98650.00;;;;5116030;28;20296;-66
2022/07/15 01:53:50;;;;;;;0.63;0.63;;;;;17.20;98651.00;;;;5116373;28;20206;-67
2022/07/15 01:56:17;;;;;;;0.90;0.90;;;;;17.10;98652.00;;;;5115963;28;20261;-68
2022/07/15 01:58:44;;;;;;;0.50;0.50;;;;;17.00;98654.00;;;;5115983;28;20221;-68
2022/07/15 02:01:11;;;;;;;0.63;0.63;;;;;17.00;98652.00;;;;5116136;28;20200;-67
2022/07/15 02:03:37;;;;;;;0.97;0.93;;;;;16.90;98653.00;;;;5115968;28;20198;-67
2022/07/15 02:06:07;;;;;;;0.60;0.60;;;;;16.80;98656.00;;;;5115868;28;20281;-66
2022/07/15 02:08:34;;;;;;;0.60;0.60;;;;;16.70;98650.00;;;;5115847;28;20657;-67
2022/07/15 02:11:01;;;;;;;0.90;0.90;;;;;16.70;98648.00;;;;5115741;28;20185;-67
2022/07/15 02:13:28;;;;;;;0.60;0.60;;;;;16.70;98647.00;;;;5115653;28;20691;-67
2022/07/15 02:15:57;;;;;;;0.87;0.87;;;;;16.90;98651.00;;;;5115620;28;20244;-67
2022/07/15 02:18:24;;;;;;;0.93;0.93;;;;;16.90;98647.00;;;;5115512;28;20279;-67
2022/07/15 02:20:51;;;;;;;1.10;1.10;;;;;16.90;98649.00;;;;5115656;28;20243;-67
2022/07/15 02:23:18;;;;;;;1.00;1.00;;;;;16.90;98647.00;;;;5115564;28;20294;-67
2022/07/15 02:25:44;;;;;;;0.60;0.60;;;;;16.90;98648.00;;;;5097450;28;20688;-66
2022/07/15 02:28:13;;;;;;;0.50;0.50;;;;;16.70;98637.00;;;;5115684;28;20198;-66
2022/07/15 02:30:43;;;;;;;1.70;0.70;;;;;16.50;98644.00;;;;5115381;28;20222;-66
2022/07/15 02:33:13;;;;;;;0.47;0.47;;;;;16.50;98642.00;;;;5115396;28;20206;-68
2022/07/15 02:35:41;;;;;;;0.63;0.60;;;;;16.40;98644.00;;;;5114771;28;20565;-66
2022/07/15 02:38:08;;;;;;;0.60;0.60;;;;;16.40;98642.00;;;;5115337;28;20258;-68
2022/07/15 02:40:35;;;;;;;0.70;0.70;;;;;16.50;98645.00;;;;5097216;28;20703;-67
2022/07/15 02:43:04;;;;;;;0.50;0.50;;;;;16.40;98637.00;;;;5115259;28;20206;-67
2022/07/15 02:45:35;;;;;;;0.77;0.77;;;;;16.50;98649.00;;;;5115134;28;20226;-67
2022/07/15 02:48:02;;;;;;;0.50;0.50;;;;;16.50;98648.00;;;;5115236;28;20198;-67
2022/07/15 02:50:29;;;;;;;0.50;0.50;;;;;16.40;98655.00;;;;5115118;28;20206;-67
2022/07/15 02:52:56;;;;;;;0.77;0.67;;;;;16.20;98648.00;;;;5115021;28;20218;-68
2022/07/15 02:55:25;;;;;;;0.70;0.70;;;;;16.20;98647.00;;;;5115160;28;20209;-67
2022/07/15 02:57:52;;;;;;;0.63;0.63;;;;;16.20;98655.00;;;;5115262;28;20238;-67
2022/07/15 03:00:20;;;;;;;1.00;1.00;;;;;16.10;98649.00;;;;5115226;28;20196;-67
2022/07/15 03:02:48;;;;;;;0.60;0.60;;;;;16.00;98653.00;;;;5115025;28;20213;-67
2022/07/15 03:05:17;;;;;;;1.07;0.90;;;;;16.00;98658.00;;;;5115225;28;20263;-67
2022/07/15 03:07:44;;;;;;;2.10;1.17;;;;;15.90;98659.00;;;;5114715;28;20204;-67
2022/07/15 03:10:12;;;;;;;1.00;1.00;;;;;15.90;98651.00;;;;5114841;28;20202;-67
2022/07/15 03:12:39;;;;;;;0.80;0.80;;;;;15.90;98656.00;;;;5114632;28;20186;-67
2022/07/15 03:15:10;;;;;;;0.50;0.50;;;;;16.00;98657.00;;;;5114638;28;20225;-66
2022/07/15 03:17:36;;;;;;;0.53;0.53;;;;;15.80;98658.00;;;;5114600;28;20280;-67
2022/07/15 03:20:05;;;;;;;0.60;0.60;;;;;15.80;98660.00;;;;5096701;28;20206;-67
2022/07/15 03:22:31;;;;;;;3.20;2.10;;;;;15.60;98664.00;;;;5114586;28;20186;-70
2022/07/15 03:24:58;;;;;;;0.80;0.80;;;;;15.60;98656.00;;;;5114452;28;20253;-67
2022/07/15 03:27:25;;;;;;;0.80;0.80;;;;;15.60;98658.00;;;;5114686;28;20198;-67
2022/07/15 03:29:52;;;;;;;1.13;1.13;;;;;15.80;98656.00;;;;5114793;28;20186;-67
2022/07/15 03:32:20;;;;;;;1.47;0.80;;;;;15.90;98662.00;;;;5114673;28;20190;-67
2022/07/15 03:34:48;;;;;;;0.80;0.80;;;;;15.90;98667.00;;;;5115212;28;20210;-68
2022/07/15 03:37:16;;;;;;;1.17;1.17;;;;;16.00;98661.00;;;;5114921;28;20190;-67
2022/07/15 03:39:42;;;;;;;0.70;0.70;;;;;15.80;98664.00;;;;5114762;28;20193;-67
2022/07/15 03:42:09;;;;;;;0.83;0.83;;;;;15.80;98659.00;;;;5114684;28;20656;-67
2022/07/15 03:44:38;;;;;;;0.83;0.83;;;;;15.70;98665.00;;;;5096827;28;20214;-68
2022/07/15 03:47:07;;;;;;;0.47;0.47;;;;;15.80;98671.00;;;;5095403;28;20202;-67
2022/07/15 03:49:36;;;;;;;0.53;0.53;;;;;15.80;98671.00;;;;5114296;28;20297;-67
2022/07/15 03:52:06;;;;;;;0.70;0.70;;;;;15.90;98661.00;;;;5114268;28;20292;-67
2022/07/15 03:54:33;;;;;;;0.77;0.77;;;;;15.80;98662.00;;;;5114094;28;20218;-67
2022/07/15 03:57:00;;;;;;;0.63;0.63;;;;;15.70;98668.00;;;;5114122;28;20190;-67
2022/07/15 03:59:29;;;;;;;4.17;1.13;;;;;15.70;98660.00;;;;5114061;28;20294;-67
2022/07/15 04:01:58;;;;;;;0.70;0.70;;;;;15.70;98668.00;;;;5114061;28;20205;-67
2022/07/15 04:04:28;;;;;;;0.70;0.70;;;;;15.80;98673.00;;;;5113860;28;20253;-68
2022/07/15 04:06:54;;;;;;;0.83;0.83;;;;;15.60;98675.00;;;;5113976;28;20204;-67
2022/07/15 04:09:21;;;;;;;0.67;0.67;;;;;15.60;98678.00;;;;5113957;28;20218;-68
2022/07/15 04:11:49;;;;;;;0.50;0.50;;;;;15.60;98674.00;;;;5113942;28;20194;-67
2022/07/15 04:14:17;;;;;;;0.80;0.80;;;;;15.50;98677.00;;;;5113825;28;20236;-67
2022/07/15 04:16:45;;;;;;;0.80;0.80;;;;;15.50;98674.00;;;;5095941;28;20664;-67
2022/07/15 04:19:12;;;;;;;1.33;1.13;;;;;15.60;98667.00;;;;5095887;28;20234;-67
2022/07/15 04:21:38;;;;;;;0.70;0.70;;;;;15.70;98670.00;;;;5113818;28;20205;-67
2022/07/15 04:24:05;;;;;;;0.53;0.53;;;;;15.80;98675.00;;;;5113611;28;20226;-67
2022/07/15 04:26:35;;;;;;;1.10;1.10;;;;;15.90;98672.00;;;;5113765;28;20198;-67
2022/07/15 04:29:05;;;;;;;2.10;1.60;;;;;15.70;98677.00;;;;5095761;28;20228;-67
2022/07/15 04:31:32;;;;;;;1.27;1.27;;;;;15.90;98676.00;;;;5113674;28;20210;-68
2022/07/15 04:33:59;;;;;;;0.60;0.60;;;;;15.80;98676.00;;;;5113444;28;20225;-67
2022/07/15 04:36:26;;;;;;;0.67;0.67;;;;;15.90;98669.00;;;;5113652;28;20489;-67
2022/07/15 04:38:52;;;;;;;0.60;0.60;;;;;16.00;98667.00;;;;5113546;28;20233;-67
2022/07/15 04:41:19;;;;;;;0.90;0.90;;;;;16.00;98672.00;;;;5113611;28;20190;-67
2022/07/15 04:43:46;;;;;;;1.37;1.37;;;;;16.00;98671.00;;;;5113414;28;20186;-67
2022/07/15 04:46:14;;;;;;;0.67;0.67;;;;;16.00;98670.00;;;;5095643;28;20198;-67
2022/07/15 04:51:28;;;;;;;0.60;0.60;;;;;16.10;98671.00;;;;5113483;28;20194;-68
2022/07/15 04:53:54;;;;;;;0.70;0.70;;;;;16.20;98670.00;;;;5113303;28;20223;-67
2022/07/15 04:56:21;;;;;;;1.03;1.03;;;;;16.30;98667.00;;;;5113433;28;20202;-67
2022/07/15 04:58:48;;;;;;;1.20;1.10;;;;;16.30;98668.00;;;;5114609;28;20190;-67
2022/07/15 05:01:15;;;;;;;1.17;1.07;;;;;16.30;98666.00;;;;5116864;28;20194;-67
2022/07/15 05:03:44;;;;;;;0.77;0.77;;;;;16.40;98681.00;;;;5098568;28;20577;-67
2022/07/15 05:06:11;;;;;;;0.57;0.57;;;;;16.40;98675.00;;;;5116714;28;20258;-67
2022/07/15 05:08:40;;;;;;;0.97;0.97;;;;;16.50;98680.00;;;;5116761;28;20198;-67
2022/07/15 05:11:07;;;;;;;1.43;1.33;;;;;16.40;98680.00;;;;5116718;28;20193;-67
2022/07/15 05:13:37;;;;;;;0.83;0.83;;;;;16.50;98679.00;;;;5116646;28;20673;-67
2022/07/15 05:16:04;;;;;;;1.27;1.27;;;;;16.60;98683.00;;;;5116629;28;20194;-67
2022/07/15 05:18:32;;;;;;;0.80;0.80;;;;;16.60;98677.00;;;;5116615;28;20277;-67
2022/07/15 05:20:58;;;;;;;0.90;0.90;;;;;16.70;98681.00;;;;5116533;28;20251;-67
2022/07/15 05:23:25;;;;;;;0.73;0.73;;;;;16.70;98680.00;;;;5116403;28;20227;-67
2022/07/15 05:25:52;;;;;;;0.67;0.67;;;;;16.70;98680.00;;;;5116474;28;20245;-67
2022/07/15 05:28:22;;;;;;;1.67;1.27;;;;;16.80;98681.00;;;;5116711;28;20586;-67
2022/07/15 05:30:48;;;;;;;0.57;0.57;;;;;17.00;98682.00;;;;5116432;28;20250;-67
2022/07/15 05:33:16;;;;;;;0.40;0.40;;;;;17.00;98687.00;;;;5098432;28;20194;-67
2022/07/15 05:35:44;;;;;;;0.90;0.90;;;;;17.10;98681.00;;;;5116303;28;20284;-67
2022/07/15 05:38:12;;;;;;;0.90;0.90;;;;;17.20;98685.00;;;;5116319;28;20222;-67
2022/07/15 05:40:39;;;;;;;0.97;0.97;;;;;17.20;98686.00;;;;5098297;28;20225;-67
2022/07/15 05:43:06;;;;;;;0.80;0.80;;;;;17.30;98690.00;;;;5116237;28;20198;-67
2022/07/15 05:45:35;;;;;;;1.80;1.70;;;;;17.40;98682.00;;;;5115926;28;20728;-68
2022/07/15 05:48:02;;;;;;;0.70;0.70;;;;;17.60;98687.00;;;;5115828;28;20206;-67
2022/07/15 05:50:29;;;;;;;0.90;0.90;;;;;17.40;98681.00;;;;5115924;28;20232;-67
2022/07/15 05:52:59;;;;;;;1.13;1.13;;;;;17.50;98691.00;;;;5116009;28;20639;-66
2022/07/15 05:55:28;;;;;;;0.80;0.80;;;;;17.70;98702.00;;;;5116086;28;20222;-65
2022/07/15 05:57:55;;;;;;;0.87;0.87;;;;;17.80;98696.00;;;;5115982;28;20194;-66
2022/07/15 06:00:25;;;;;;;0.60;0.60;;;;;17.80;98692.00;;;;5115791;28;20222;-65
2022/07/15 06:02:51;;;;;;;0.50;0.50;;;;;17.90;98705.00;;;;5115855;28;20277;-65
2022/07/15 06:05:19;;;;;;;1.27;1.00;;;;;18.00;98698.00;;;;5115780;28;20266;-67
2022/07/15 06:07:48;;;;;;;2.87;1.23;;;;;18.00;98701.00;;;;5115716;28;20194;-67
2022/07/15 06:10:18;;;;;;;2.50;1.90;;;;;18.00;98699.00;;;;5114928;28;20190;-66
2022/07/15 06:12:47;;;;;;;0.70;0.70;;;;;18.00;98701.00;;;;5115560;28;20231;-67
2022/07/15 06:15:17;;;;;;;0.70;0.70;;;;;18.20;98702.00;;;;5115564;28;20277;-66
2022/07/15 06:17:44;;;;;;;0.60;0.60;;;;;18.30;98695.00;;;;5097584;28;20312;-66
2022/07/15 06:20:11;;;;;;;0.83;0.83;;;;;18.40;98707.00;;;;5115608;28;20198;-68
2022/07/15 06:22:38;;;;;;;0.60;0.60;;;;;18.40;98696.00;;;;5115551;28;20216;-66
2022/07/15 06:25:08;;;;;;;0.53;0.53;;;;;18.50;98707.00;;;;5097478;28;20229;-66
2022/07/15 06:27:36;;;;;;;1.33;1.23;;;;;18.60;98708.00;;;;5115428;28;20285;-67
2022/07/15 06:30:03;;;;;;;0.73;0.73;;;;;18.60;98700.00;;;;5115329;28;20237;-67
2022/07/15 06:32:30;;;;;;;18.10;1.33;;;;;18.70;98704.00;;;;5115408;28;20216;-68
2022/07/15 06:34:57;;;;;;;0.63;0.63;;;;;18.80;98696.00;;;;5115330;28;20218;-68
2022/07/15 06:37:27;;;;;;;0.80;0.80;;;;;18.90;98705.00;;;;5115297;28;20512;-67
2022/07/15 06:39:55;;;;;;;0.70;0.70;;;;;18.90;98699.00;;;;5097241;28;20569;-69
2022/07/15 06:42:21;;;;;;;2.83;1.63;;;;;19.00;98704.00;;;;5115205;28;20681;-66
2022/07/15 06:44:49;;;;;;;1.17;1.17;;;;;19.10;98697.00;;;;5115147;28;20252;-67
2022/07/15 06:47:16;;;;;;;0.70;0.70;;;;;19.20;98697.00;;;;5115038;28;20665;-67
2022/07/15 06:49:43;;;;;;;0.50;0.50;;;;;19.30;98703.00;;;;5115148;28;20202;-67
2022/07/15 06:52:12;;;;;;;0.73;0.73;;;;;19.40;98701.00;;;;5115061;28;20226;-66
2022/07/15 06:54:41;;;;;;;0.80;0.80;;;;;19.40;98697.00;;;;5115250;28;20227;-67
2022/07/15 06:57:08;;;;;;;0.80;0.80;;;;;19.50;98698.00;;;;5115005;28;20248;-66
2022/07/15 06:59:37;;;;;;;0.60;0.60;;;;;19.50;98702.00;;;;5115050;28;20263;-68
2022/07/15 07:02:05;;;;;;;0.50;0.50;;;;;19.60;98709.00;;;;5114951;28;20198;-67
2022/07/15 07:04:32;;;;;;;0.70;0.70;;;;;19.70;98703.00;;;;5114867;28;20662;-67
2022/07/15 07:07:02;;;;;;;0.60;0.60;;;;;19.80;98701.00;;;;5114871;28;20225;-67
2022/07/15 07:09:31;;;;;;;0.70;0.70;;;;;19.90;98710.00;;;;5114553;28;20226;-67
2022/07/15 07:11:58;;;;;;;0.63;0.63;;;;;19.90;98705.00;;;;5114790;28;20240;-68
2022/07/15 07:14:25;;;;;;;0.40;0.40;;;;;20.00;98694.00;;;;5114807;28;20280;-67
2022/07/15 07:16:54;;;;;;;0.77;0.77;;;;;20.10;98695.00;;;;5114730;28;20284;-65
2022/07/15 07:19:24;;;;;;;0.80;0.80;;;;;20.30;98693.00;;;;5114732;28;20198;-67
2022/07/15 07:21:51;;;;;;;0.60;0.60;;;;;20.20;98692.00;;;;5114692;28;20233;-66
2022/07/15 07:24:18;;;;;;;0.63;0.63;;;;;20.40;98691.00;;;;5114503;28;20305;-66
2022/07/15 07:26:45;;;;;;;4.10;1.47;;;;;20.40;98690.00;;;;5114588;28;20330;-65
2022/07/15 07:29:12;;;;;;;0.30;0.30;;;;;20.60;98691.00;;;;5114600;28;20198;-66
2022/07/15 07:31:39;;;;;;;0.60;0.60;;;;;20.50;98695.00;;;;5114456;28;20186;-66
2022/07/15 07:34:08;;;;;;;0.50;0.50;;;;;20.60;98687.00;;;;5114409;28;20260;-66
2022/07/15 07:36:38;;;;;;;0.50;0.50;;;;;20.60;98697.00;;;;5114388;28;20198;-66
2022/07/15 07:39:05;;;;;;;0.53;0.53;;;;;20.70;98696.00;;;;5114300;28;20278;-67
2022/07/15 07:41:32;;;;;;;0.40;0.40;;;;;20.80;98699.00;;;;5114312;28;20202;-66
2022/07/15 07:43:58;;;;;;;0.70;0.70;;;;;20.90;98685.00;;;;5114154;28;20214;-66
2022/07/15 07:46:25;;;;;;;0.70;0.70;;;;;20.90;98695.00;;;;5114365;28;20193;-67
2022/07/15 07:48:52;;;;;;;0.40;0.40;;;;;21.00;98689.00;;;;5114349;28;20332;-66
2022/07/15 07:51:19;;;;;;;1.27;1.17;;;;;21.00;98691.00;;;;5114190;28;20213;-67
2022/07/15 07:53:49;;;;;;;1.13;1.13;;;;;21.10;98688.00;;;;5114272;28;20560;-68
2022/07/15 07:56:16;;;;;;;3.20;0.97;;;;;21.20;98692.00;;;;5114013;28;20221;-68
2022/07/15 07:58:43;;;;;;;0.40;0.40;;;;;21.20;98685.00;;;;5114042;28;20632;-67
2022/07/15 08:01:10;;;;;;;1.15;1.05;;;;;21.30;98688.00;;;;5113964;28;20190;-67
2022/07/15 08:03:37;;;;;;;0.47;0.47;;;;;21.40;98690.00;;;;5114114;28;20200;-67
2022/07/15 08:06:04;;;;;;;0.50;0.50;;;;;21.50;98684.00;;;;5113958;28;20221;-67
2022/07/15 08:08:33;;;;;;;0.68;0.68;;;;;21.60;98683.00;;;;5113955;28;20214;-67
2022/07/15 08:11:00;;;;;;;2.60;1.00;;;;;21.60;98676.00;;;;5114016;28;20277;-68
2022/07/15 08:13:28;;;;;;;0.60;0.60;;;;;21.80;98678.00;;;;5113902;28;20213;-68
2022/07/15 08:15:57;;;;;;;0.68;0.68;;;;;21.90;98678.00;;;;5113990;28;20220;-68
2022/07/15 08:18:24;;;;;;;2.63;1.15;;;;;22.00;98689.00;;;;5113761;28;20190;-67
2022/07/15 08:20:51;;;;;;;0.43;0.43;;;;;22.00;98689.00;;;;5113940;28;20204;-68
2022/07/15 08:23:21;;;;;;;0.40;0.40;;;;;22.10;98691.00;;;;5113806;28;20194;-68
2022/07/15 08:25:49;;;;;;;0.60;0.60;;;;;22.20;98691.00;;;;5113677;28;20241;-67
2022/07/15 08:28:19;;;;;;;2.88;0.90;;;;;22.30;98690.00;;;;5113858;28;20585;-69
2022/07/15 08:30:48;;;;;;;2.47;0.85;;;;;22.50;98691.00;;;;5095739;28;20217;-68
2022/07/15 08:33:15;;;;;;;0.50;0.50;;;;;22.40;98693.00;;;;5114224;28;20219;-69
2022/07/15 08:35:43;;;;;;;0.60;0.60;;;;;22.50;98686.00;;;;5117280;28;20281;-71
2022/07/15 08:38:11;;;;;;;0.60;0.60;;;;;22.50;98684.00;;;;5117337;28;20247;-70
2022/07/15 08:40:39;;;;;;;1.63;0.50;;;;;22.60;98688.00;;;;5117201;28;20190;-69
2022/07/15 08:43:09;;;;;;;0.73;0.73;;;;;22.60;98688.00;;;;5117224;28;20221;-69
2022/07/15 08:45:38;;;;;;;0.85;0.85;;;;;22.50;98690.00;;;;5117042;28;20210;-69
2022/07/15 08:48:05;;;;;;;0.40;0.40;;;;;22.60;98695.00;;;;5117021;28;20627;-68
2022/07/15 08:50:36;;;;;;;0.85;0.82;;;;;22.60;98697.00;;;;5117063;28;20274;-69
2022/07/15 08:53:04;;;;;;;0.45;0.45;;;;;22.70;98692.00;;;;5116951;28;21028;-69
2022/07/15 08:55:31;;;;;;;0.50;0.50;;;;;22.80;98694.00;;;;5117117;28;20251;-69
2022/07/15 08:57:57;;;;;;;0.50;0.50;;;;;22.70;98700.00;;;;5116981;28;20190;-68
2022/07/15 09:00:28;;;;;;;1.08;1.08;;;;;22.90;98697.00;;;;5116882;28;20194;-69
2022/07/15 09:02:58;;;;;;;0.70;0.70;;;;;22.90;98700.00;;;;5116964;28;20205;-67
2022/07/15 09:05:27;;;;;;;0.47;0.47;;;;;23.10;98703.00;;;;5116903;28;20242;-67
2022/07/15 09:08:06;;;;;;;0.60;0.60;;;;;22.90;98705.00;;;;5116827;28;20205;-68
2022/07/15 09:10:51;;;;;;;0.50;0.50;;;;;23.00;98708.00;;;;5116667;28;20677;-67
2022/07/15 09:13:30;;;;;;;0.32;0.32;;;;;23.10;98703.00;;;;5116929;28;20297;-67
2022/07/15 09:15:58;;;;;;;5.38;0.95;;;;;23.00;98701.00;;;;5116596;28;20225;-67
2022/07/15 09:18:28;;;;;;;0.60;0.60;;;;;23.00;98700.00;;;;5116735;28;20259;-67
2022/07/15 09:20:55;;;;;;;0.60;0.60;;;;;23.10;98702.00;;;;5116642;28;20282;-67
2022/07/15 09:23:29;;;;;;;2.53;0.88;;;;;23.10;98697.00;;;;5116630;28;20200;-68
2022/07/15 09:25:58;;;;;;;0.45;0.45;;;;;23.20;98697.00;;;;5116446;28;20653;-68
2022/07/15 09:28:39;;;;;;;0.60;0.60;;;;;23.20;98693.00;;;;5116519;28;20261;-68
2022/07/15 09:34:01;;;;;;;0.60;0.60;;;;;23.50;98694.00;;;;5116400;28;20669;-68
2022/07/15 09:36:31;;;;;;;10.57;0.73;;;;;23.50;98698.00;;;;5116403;28;20655;-67
2022/07/15 09:39:00;;;;;;;0.55;0.55;;;;;23.80;98702.00;;;;5116175;28;20217;-67
2022/07/15 09:41:30;;;;;;;0.95;0.95;;;;;23.90;98701.00;;;;5116291;28;20229;-67
2022/07/15 09:44:00;;;;;;;0.50;0.50;;;;;24.10;98704.00;;;;5116175;28;20645;-69
2022/07/15 09:46:29;;;;;;;0.57;0.57;;;;;24.00;98707.00;;;;5114972;28;20225;-68
2022/07/15 09:48:56;;;;;;;0.50;0.50;;;;;23.80;98712.00;;;;5116203;28;20265;-68
2022/07/15 09:51:24;;;;;;;1.00;0.95;;;;;23.70;98708.00;;;;5116022;28;20222;-70
2022/07/15 09:53:53;;;;;;;0.60;0.60;;;;;23.80;98707.00;;;;5116081;28;20642;-69
2022/07/15 09:56:23;;;;;;;0.82;0.82;;;;;23.80;98710.00;;;;5115932;28;20710;-68
2022/07/15 09:58:50;;;;;;;0.60;0.60;;;;;23.90;98696.00;;;;5116047;28;20186;-68
2022/07/15 10:01:18;;;;;;;0.40;0.40;;;;;24.00;98706.00;;;;5116115;28;20193;-68
2022/07/15 10:03:45;;;;;;;0.82;0.75;;;;;24.10;98712.00;;;;5115885;28;20273;-69
2022/07/15 10:06:15;;;;;;;0.50;0.50;;;;;24.20;98707.00;;;;5097783;28;20232;-67
2022/07/15 10:08:48;;;;;;;0.60;0.60;;;;;24.30;98701.00;;;;5115845;28;20232;-68
2022/07/15 10:11:17;;;;;;;0.70;0.70;;;;;24.40;98704.00;;;;5115854;28;20217;-68
2022/07/15 10:14:37;;;;;;;0.50;0.50;;;;;24.60;98708.00;;;;5115657;28;20282;-70
2022/07/15 10:17:24;;;;;;;0.55;0.55;;;;;24.80;98700.00;;;;5115748;28;20204;-69
2022/07/15 10:20:09;;;;;;;0.60;0.60;;;;;25.30;98698.00;;;;5115622;28;20218;-68
2022/07/15 10:22:47;;;;;;;1.52;1.42;;;;;25.40;98688.00;;;;5115579;28;20649;-69
2022/07/15 10:25:28;;;;;;;0.80;0.80;;;;;25.40;98696.00;;;;5115420;28;20314;-70
2022/07/15 10:28:03;;;;;;;0.70;0.70;;;;;25.90;98694.00;;;;5115645;28;20637;-69
2022/07/15 10:30:32;;;;;;;0.45;0.45;;;;;26.10;98697.00;;;;5115497;28;20522;-69
2022/07/15 10:33:10;;;;;;;0.95;0.95;;;;;26.10;98688.00;;;;5115530;28;20281;-68
2022/07/15 10:35:41;;;;;;;0.57;0.57;;;;;25.90;98684.00;;;;5115470;28;20189;-67
2022/07/15 10:38:40;;;;;;;0.60;0.60;;;;;25.80;98694.00;;;;5115356;28;20205;-69
2022/07/15 10:41:12;;;;;;;0.60;0.60;;;;;26.00;98685.00;;;;5013395;28;20205;-67
2022/07/15 10:43:49;;;;;;;0.73;0.73;;;;;25.80;98679.00;;;;5095533;28;20245;-70
2022/07/15 10:46:25;;;;;;;1.52;1.42;;;;;26.10;98679.00;;;;5115204;28;20227;-67
2022/07/15 10:49:08;;;;;;;0.50;0.50;;;;;26.30;98663.00;;;;5115164;28;20236;-68
2022/07/15 10:51:46;;;;;;;0.90;0.90;;;;;26.80;98674.00;;;;5114258;28;20267;-66
2022/07/15 10:54:47;;;;;;;0.50;0.50;;;;;27.10;98661.00;;;;5114953;28;20612;-69
2022/07/15 10:57:17;;;;;;;0.90;0.90;;;;;27.40;98664.00;;;;5114711;28;20288;-68
2022/07/15 10:59:53;;;;;;;0.68;0.68;;;;;27.50;98666.00;;;;5115033;28;20218;-69
2022/07/15 11:02:22;;;;;;;0.60;0.60;;;;;27.70;98667.00;;;;5114993;28;20323;-67
2022/07/15 11:04:52;;;;;;;1.23;1.13;;;;;27.70;98654.00;;;;5114886;28;20278;-67
2022/07/15 11:07:35;;;;;;;0.70;0.70;;;;;27.80;98654.00;;;;5114984;28;20250;-68
2022/07/15 11:10:19;;;;;;;0.60;0.60;;;;;27.60;98653.00;;;;5114813;28;20204;-67
2022/07/15 11:12:59;;;;;;;1.38;1.20;;;;;27.70;98653.00;;;;5114750;28;20217;-66
2022/07/15 11:15:26;;;;;;;0.63;0.63;;;;;27.10;98651.00;;;;5114749;28;20259;-67
2022/07/15 11:17:56;;;;;;;0.90;0.90;;;;;27.50;98654.00;;;;5114581;28;20297;-67
2022/07/15 11:20:32;;;;;;;0.55;0.55;;;;;27.80;98651.00;;;;5114676;28;20198;-67
2022/07/15 11:23:01;;;;;;;0.63;0.63;;;;;27.90;98645.00;;;;5114682;28;20301;-67
2022/07/15 11:25:30;;;;;;;0.70;0.70;;;;;27.60;98644.00;;;;5096473;28;20222;-68
2022/07/15 11:28:00;;;;;;;0.60;0.60;;;;;27.70;98634.00;;;;5114346;28;20190;-71
2022/07/15 11:30:29;;;;;;;0.60;0.60;;;;;28.00;98638.00;;;;5114560;28;20170;-69
2022/07/15 11:33:03;;;;;;;0.77;0.77;;;;;28.30;98641.00;;;;5114539;28;20194;-67
2022/07/15 11:35:44;;;;;;;0.70;0.70;;;;;28.10;98650.00;;;;5114749;28;20249;-69
2022/07/15 11:38:14;;;;;;;2.83;0.98;;;;;28.30;98646.00;;;;5114566;28;20285;-70
2022/07/15 11:46:21;;;;;;;0.60;0.60;;;;;29.10;98644.00;;;;5113869;28;20233;-68
2022/07/15 11:48:51;;;;;;;1.25;1.15;;;;;28.90;98646.00;;;;5114278;28;20288;-69
2022/07/15 11:51:26;;;;;;;0.77;0.77;;;;;28.80;98636.00;;;;5114237;28;20246;-68
2022/07/15 11:53:53;;;;;;;0.55;0.55;;;;;29.10;98638.00;;;;5114439;28;20201;-68
2022/07/15 11:56:20;;;;;;;0.65;0.65;;;;;29.10;98641.00;;;;5114295;28;20300;-70
2022/07/15 11:58:52;;;;;;;0.50;0.50;;;;;29.20;98635.00;;;;5118180;28;20285;-70
2022/07/15 12:01:22;;;;;;;1.00;1.00;;;;;28.70;98634.00;;;;5114448;28;20197;-69
2022/07/15 12:03:50;;;;;;;0.70;0.70;;;;;28.40;98645.00;;;;5114217;28;20214;-69
2022/07/15 12:06:20;;;;;;;0.70;0.70;;;;;28.90;98639.00;;;;5113877;28;20214;-68
2022/07/15 12:08:49;;;;;;;0.60;0.60;;;;;28.90;98643.00;;;;5113155;28;20266;-68
2022/07/15 12:11:23;;;;;;;1.20;0.85;;;;;28.40;98633.00;;;;5113984;28;20209;-68
2022/07/15 12:13:57;;;;;;;0.57;0.57;;;;;28.50;98621.00;;;;5113988;28;20220;-68
2022/07/15 12:16:27;;;;;;;0.70;0.70;;;;;29.00;98622.00;;;;5114005;28;20202;-69
2022/07/15 12:18:56;;;;;;;0.90;0.90;;;;;29.20;98621.00;;;;5095947;28;20710;-69
2022/07/15 12:21:24;;;;;;;0.95;0.95;;;;;29.60;98636.00;;;;5113853;28;20217;-67
2022/07/15 12:24:06;;;;;;;2.10;1.13;;;;;29.60;98638.00;;;;5113896;28;20347;-69
2022/07/15 12:26:34;;;;;;;0.60;0.60;;;;;29.10;98634.00;;;;5113611;28;20687;-69
2022/07/15 12:29:05;;;;;;;15.65;1.05;;;;;28.80;98642.00;;;;5113842;28;20170;-69
2022/07/15 12:31:34;;;;;;;1.33;1.25;;;;;29.00;98633.00;;;;5113620;28;20269;-68
2022/07/15 12:34:01;;;;;;;0.60;0.60;;;;;29.30;98622.00;;;;5113779;28;20198;-69
2022/07/15 12:36:30;;;;;;;0.60;0.60;;;;;29.20;98621.00;;;;5113810;28;20255;-68
2022/07/15 12:39:10;;;;;;;0.95;0.95;;;;;29.60;98613.00;;;;5113421;28;20198;-69
2022/07/15 12:41:40;;;;;;;0.50;0.50;;;;;29.50;98614.00;;;;5113645;28;20283;-68
2022/07/15 12:44:11;;;;;;;0.60;0.60;;;;;30.10;98600.00;;;;5113639;28;20226;-69
2022/07/15 12:46:56;;;;;;;3.35;1.45;;;;;30.30;98604.00;;;;5113436;28;20543;-69